Columbia, Washington
Current Conditions -  °F | °C
As of 8:53 AM on Monday 22 Dec 2014 (Local Time) from KBFI Reporting Station
Clear Clear  
Wind Chill: 47°   Ceiling: Unl
Heat Index: 47°   Visibility: 10mi
Dew Point: 38°   Wind: 3mph
Humidity: 71%   Direction: 110°ESE
Pressure: 30.34"   Gusts: NA
Location:  47.5384°N, 122.277°W
Report Text: KBFI 221653Z 11003KT 10SM CLR 08/03 A3034 RMK AO2 SLP274 T00830033
Loading
Personal Weather Stations






























Interactive Weather Map New forecast layout! Learn more

10-Day Weather Forecast

Advertisements
Track Severe Weather on mobile